Time;durP1;ratioP1;P1;durP2;ratioP2;P2;SDS_P1;SDS_P2;PMS_P1;PMS_P2;Temp;Humidity;BMP_temperature;BMP_pressure;BME280_temperature;BME280_humidity;BME280_pressure;Samples;Min_cycle;Max_cycle;Signal;HPM_P1;HPM_P2
2023/01/28 02:28:27;;;;;;;3.40;3.10;;;2.30;99.90;;;;;;5105392;22;20549;-77
2023/01/28 02:31:01;;;;;;;6.23;3.40;;;2.30;99.90;;;;;;5038711;28;20462;-79
2023/01/28 02:33:42;;;;;;;3.93;2.93;;;2.20;99.90;;;;;;5055417;28;20485;-78
2023/01/28 02:36:20;;;;;;;4.20;3.60;;;2.20;99.90;;;;;;5053738;28;20475;-77
2023/01/28 02:38:50;;;;;;;3.10;2.80;;;2.20;99.90;;;;;;5056863;28;20489;-77
2023/01/28 02:41:30;;;;;;;4.50;2.77;;;2.20;99.90;;;;;;5053782;28;21357;-78
2023/01/28 02:44:02;;;;;;;4.10;3.33;;;2.20;99.90;;;;;;5055695;28;20501;-77
2023/01/28 02:49:30;;;;;;;3.03;2.80;;;2.10;99.90;;;;;;5056556;28;21059;-77
2023/01/28 02:52:19;;;;;;;2.83;2.53;;;2.10;99.90;;;;;;5059262;28;20868;-77
2023/01/28 02:54:58;;;;;;;4.20;3.00;;;2.10;99.90;;;;;;5056950;28;20467;-78
2023/01/28 02:57:38;;;;;;;2.80;2.60;;;2.20;99.90;;;;;;5056142;28;20466;-77
2023/01/28 03:00:15;;;;;;;4.43;3.30;;;2.20;99.90;;;;;;5054397;28;20482;-78
2023/01/28 03:02:48;;;;;;;3.10;2.80;;;2.20;99.90;;;;;;5052968;28;20512;-78
2023/01/28 03:05:23;;;;;;;4.30;3.90;;;2.10;99.90;;;;;;5054148;28;20470;-77
2023/01/28 03:07:53;;;;;;;4.40;3.40;;;2.20;99.90;;;;;;5054576;28;20554;-77
2023/01/28 03:10:24;;;;;;;4.20;3.80;;;2.10;99.90;;;;;;5053050;28;20474;-78
2023/01/28 03:38:48;;;;;;;3.80;3.37;;;2.10;99.90;;;;;;5050882;28;20501;-77
2023/01/28 03:41:21;;;;;;;3.70;3.40;;;2.10;99.90;;;;;;5058825;28;20987;-77
2023/01/28 03:43:50;;;;;;;4.47;3.20;;;2.10;99.90;;;;;;5056160;28;20858;-77
2023/01/28 03:46:22;;;;;;;3.90;3.50;;;2.00;99.90;;;;;;5055677;28;20473;-77
2023/01/28 03:48:55;;;;;;;3.70;3.40;;;2.00;99.90;;;;;;5053661;28;20540;-77
2023/01/28 03:51:27;;;;;;;3.50;3.20;;;2.00;99.90;;;;;;5061214;28;20466;-77
2023/01/28 03:53:59;;;;;;;4.07;3.53;;;2.00;99.90;;;;;;5051580;28;20470;-77
2023/01/28 03:56:36;;;;;;;4.07;3.67;;;2.00;99.90;;;;;;5048108;28;20462;-77
2023/01/28 03:59:11;;;;;;;3.80;3.50;;;2.00;99.90;;;;;;5054826;28;20485;-77
2023/01/28 04:01:45;;;;;;;5.17;3.67;;;2.00;99.90;;;;;;5051642;28;20543;-77
2023/01/28 04:04:23;;;;;;;5.33;3.57;;;2.00;99.90;;;;;;5051978;28;20580;-78
2023/01/28 04:06:58;;;;;;;4.50;4.10;;;2.00;99.90;;;;;;5054868;28;20466;-79
2023/01/28 04:09:27;;;;;;;4.07;3.77;;;2.00;99.90;;;;;;5058803;28;20562;-78
2023/01/28 04:11:55;;;;;;;3.97;3.53;;;2.00;99.90;;;;;;5060164;28;20473;-77
2023/01/28 04:14:26;;;;;;;4.37;4.00;;;2.00;99.90;;;;;;5059242;28;20493;-77
2023/01/28 04:17:00;;;;;;;3.77;3.47;;;1.90;99.90;;;;;;5063320;28;20498;-78
2023/01/28 04:19:35;;;;;;;4.37;3.97;;;1.90;99.90;;;;;;5054747;28;21076;-77
2023/01/28 04:22:10;;;;;;;4.53;4.13;;;1.90;99.90;;;;;;5054551;28;20474;-77
2023/01/28 04:24:39;;;;;;;4.10;3.80;;;1.80;99.90;;;;;;5058804;28;20855;-78
2023/01/28 04:27:10;;;;;;;3.97;3.67;;;1.80;99.90;;;;;;5058250;28;20517;-79
2023/01/28 04:29:48;;;;;;;5.10;3.77;;;1.80;99.90;;;;;;5057204;28;20477;-77
2023/01/28 04:32:17;;;;;;;4.27;3.80;;;1.80;99.90;;;;;;5056075;28;20475;-77
2023/01/28 04:34:50;;;;;;;5.03;3.90;;;1.70;99.90;;;;;;5057273;28;20849;-77
2023/01/28 04:37:20;;;;;;;6.67;4.03;;;1.70;99.90;;;;;;5068320;28;20470;-78
2023/01/28 04:39:51;;;;;;;3.67;3.37;;;1.60;99.90;;;;;;5064787;28;20486;-77
2023/01/28 04:42:24;;;;;;;4.13;3.83;;;1.60;99.90;;;;;;5065108;28;20474;-77
2023/01/28 04:44:53;;;;;;;5.00;4.20;;;1.60;99.90;;;;;;5052205;28;20474;-78
2023/01/28 04:47:23;;;;;;;4.47;4.07;;;1.60;99.90;;;;;;5059134;28;20475;-77
2023/01/28 04:49:56;;;;;;;4.30;3.90;;;1.50;99.90;;;;;;5061395;28;20474;-78
2023/01/28 04:52:27;;;;;;;4.90;4.40;;;1.50;99.90;;;;;;5056411;28;20547;-78
2023/01/28 04:55:06;;;;;;;5.33;4.90;;;1.50;99.90;;;;;;5058551;28;20469;-79
2023/01/28 04:57:34;;;;;;;5.10;4.20;;;1.40;99.90;;;;;;5058992;28;20486;-78
2023/01/28 05:00:08;;;;;;;4.57;4.23;;;1.40;99.90;;;;;;5058740;28;20482;-77
2023/01/28 05:02:40;;;;;;;4.23;3.83;;;1.40;99.90;;;;;;5055363;28;20529;-78
2023/01/28 05:05:11;;;;;;;4.40;4.00;;;1.30;99.90;;;;;;5057204;28;20474;-77
2023/01/28 05:07:41;;;;;;;4.77;4.47;;;1.30;99.90;;;;;;5055500;28;20490;-77
2023/01/28 05:10:13;;;;;;;4.43;4.03;;;1.40;99.90;;;;;;5063076;28;20466;-77
2023/01/28 05:12:40;;;;;;;6.43;4.50;;;1.30;99.90;;;;;;5058732;28;20475;-77
2023/01/28 05:15:11;;;;;;;4.60;4.20;;;1.30;99.90;;;;;;5056679;28;20454;-77
2023/01/28 05:17:40;;;;;;;4.83;4.43;;;1.30;99.90;;;;;;5055522;28;20517;-77
2023/01/28 05:20:17;;;;;;;4.70;4.23;;;1.30;99.90;;;;;;5057742;28;20478;-77
2023/01/28 05:22:53;;;;;;;4.70;4.20;;;1.20;99.90;;;;;;5060640;28;20470;-77
2023/01/28 05:25:26;;;;;;;4.80;4.40;;;1.20;99.90;;;;;;5062672;28;20470;-78
2023/01/28 05:28:00;;;;;;;5.10;3.97;;;1.20;99.90;;;;;;5062500;28;20501;-78
2023/01/28 05:30:28;;;;;;;5.50;4.77;;;1.10;99.90;;;;;;5050837;28;20517;-77
2023/01/28 05:32:58;;;;;;;4.67;4.27;;;1.10;99.90;;;;;;5055595;28;20493;-77
2023/01/28 05:35:34;;;;;;;4.70;4.30;;;1.00;99.90;;;;;;5061670;28;20473;-77
2023/01/28 05:38:08;;;;;;;4.53;4.13;;;1.00;99.90;;;;;;5060274;28;20570;-77
2023/01/28 05:40:41;;;;;;;5.40;4.60;;;0.90;99.90;;;;;;5052313;28;20536;-78
2023/01/28 05:43:11;;;;;;;4.83;4.43;;;0.90;99.90;;;;;;5052174;28;20470;-78
2023/01/28 05:45:39;;;;;;;4.77;4.30;;;0.90;99.90;;;;;;5057469;28;20470;-77
2023/01/28 05:48:15;;;;;;;5.30;4.80;;;0.80;99.90;;;;;;5056622;28;20523;-78
2023/01/28 05:50:49;;;;;;;5.97;5.23;;;0.80;99.90;;;;;;5059782;28;20497;-79
2023/01/28 05:53:17;;;;;;;4.83;4.43;;;0.70;99.90;;;;;;5061155;28;20475;-80
2023/01/28 05:55:53;;;;;;;4.50;4.10;;;0.70;99.90;;;;;;5057362;28;20853;-77
2023/01/28 05:58:25;;;;;;;4.83;4.43;;;0.60;99.90;;;;;;5060789;28;20492;-79
2023/01/28 06:00:57;;;;;;;4.53;4.20;;;0.60;99.90;;;;;;5060228;28;20490;-79
2023/01/28 06:03:31;;;;;;;5.30;4.80;;;0.60;99.90;;;;;;5056504;28;20489;-77
2023/01/28 06:06:02;;;;;;;5.43;4.93;;;0.60;99.90;;;;;;5057497;28;20564;-81
2023/01/28 06:08:32;;;;;;;7.17;4.70;;;0.50;99.90;;;;;;5061821;28;20486;-78
2023/01/28 06:11:05;;;;;;;5.80;5.30;;;0.50;99.90;;;;;;5057799;28;20564;-78
2023/01/28 06:13:36;;;;;;;5.10;4.70;;;0.40;99.90;;;;;;5059794;28;20476;-78
2023/01/28 06:16:17;;;;;;;5.53;5.03;;;0.40;99.90;;;;;;5059567;28;20568;-77
2023/01/28 06:18:48;;;;;;;5.30;4.70;;;0.40;99.90;;;;;;5063256;28;20498;-80
2023/01/28 06:21:19;;;;;;;6.40;5.20;;;0.40;99.90;;;;;;5062944;28;20500;-78
2023/01/28 06:23:49;;;;;;;5.20;4.70;;;0.30;99.90;;;;;;5062860;28;20473;-79
2023/01/28 06:26:17;;;;;;;6.17;5.33;;;0.40;99.90;;;;;;5058669;28;20478;-79
2023/01/28 06:28:46;;;;;;;6.70;5.87;;;0.40;99.90;;;;;;5067101;28;20530;-78
2023/01/28 06:31:16;;;;;;;5.50;5.03;;;0.40;99.90;;;;;;5063102;28;20470;-79
2023/01/28 06:33:44;;;;;;;5.60;5.10;;;0.30;99.90;;;;;;5058493;28;20470;-79
2023/01/28 06:36:15;;;;;;;5.13;4.73;;;0.40;99.90;;;;;;5060042;28;20443;-78
2023/01/28 06:38:44;;;;;;;7.10;5.30;;;0.40;99.90;;;;;;5072186;28;20500;-81
2023/01/28 06:41:14;;;;;;;5.60;5.10;;;0.40;99.90;;;;;;5066766;28;20483;-78
2023/01/28 06:43:44;;;;;;;5.97;5.40;;;0.40;99.90;;;;;;5063891;28;20484;-76
2023/01/28 06:46:15;;;;;;;5.10;4.60;;;0.40;99.90;;;;;;5059728;28;20533;-77
2023/01/28 06:48:45;;;;;;;6.30;5.80;;;0.30;99.90;;;;;;5060701;28;20495;-79
2023/01/28 06:51:22;;;;;;;7.60;6.70;;;0.30;99.90;;;;;;5062521;28;20582;-80
2023/01/28 06:54:01;;;;;;;8.13;6.40;;;0.40;99.90;;;;;;5060234;28;20957;-78
2023/01/28 06:56:35;;;;;;;7.27;6.10;;;0.30;99.90;;;;;;5055695;28;20469;-79
2023/01/28 06:59:09;;;;;;;6.77;6.10;;;0.30;99.90;;;;;;5064728;28;20510;-79
2023/01/28 07:01:49;;;;;;;6.07;5.43;;;0.30;99.90;;;;;;5066579;28;20462;-78
2023/01/28 07:04:23;;;;;;;6.47;5.87;;;0.30;99.90;;;;;;5058521;28;20482;-78
2023/01/28 07:06:54;;;;;;;7.27;6.57;;;0.20;99.90;;;;;;5057061;28;20471;-78
2023/01/28 07:09:26;;;;;;;7.17;6.47;;;0.20;99.90;;;;;;5063246;28;20516;-80
2023/01/28 07:12:04;;;;;;;7.40;6.70;;;0.20;99.90;;;;;;5070038;28;20466;-80
2023/01/28 07:14:41;;;;;;;8.23;6.90;;;0.10;99.90;;;;;;5067321;28;20499;-78
2023/01/28 07:17:14;;;;;;;7.70;6.90;;;0.10;99.90;;;;;;5056624;28;20471;-79
2023/01/28 07:19:42;;;;;;;7.20;6.60;;;0.10;99.90;;;;;;5063733;28;20473;-78
2023/01/28 07:22:11;;;;;;;9.17;8.37;;;0.10;99.90;;;;;;5064916;28;20495;-79
2023/01/28 07:24:41;;;;;;;8.80;8.00;;;0.00;99.90;;;;;;5063609;28;20476;-78
2023/01/28 07:27:09;;;;;;;9.80;8.80;;;0.00;99.90;;;;;;5057431;28;20477;-76
2023/01/28 07:29:41;;;;;;;9.97;8.93;;;0.00;99.90;;;;;;5059237;28;20577;-80
2023/01/28 07:32:14;;;;;;;10.07;9.17;;;0.00;99.90;;;;;;5054695;28;20462;-80
2023/01/28 07:34:42;;;;;;;10.60;9.60;;;0.00;99.90;;;;;;5060530;28;20477;-78
2023/01/28 07:37:14;;;;;;;9.90;8.90;;;0.00;99.90;;;;;;5052764;28;20480;-78
2023/01/28 07:39:54;;;;;;;9.40;8.60;;;0.00;99.90;;;;;;5054326;28;20467;-79
2023/01/28 07:42:27;;;;;;;9.83;8.83;;;0.00;99.90;;;;;;5057524;28;20467;-79
2023/01/28 07:44:55;;;;;;;11.70;9.63;;;0.00;99.90;;;;;;5055157;28;20477;-78
2023/01/28 07:47:24;;;;;;;10.33;9.23;;;0.00;99.90;;;;;;5050027;28;20470;-77
2023/01/28 07:49:57;;;;;;;10.23;9.23;;;0.00;99.90;;;;;;5059780;28;20463;-77
2023/01/28 07:52:25;;;;;;;9.43;8.37;;;0.00;99.90;;;;;;5050378;28;21006;-79
2023/01/28 07:54:57;;;;;;;10.13;9.00;;;0.00;99.90;;;;;;5055332;28;21802;-79
2023/01/28 07:57:32;;;;;;;12.40;9.10;;;0.00;99.90;;;;;;5049823;28;20482;-77
2023/01/28 08:00:04;;;;;;;14.93;10.83;;;0.00;99.90;;;;;;5056406;28;20462;-78
2023/01/28 08:02:32;;;;;;;10.67;9.57;;;-0.10;99.90;;;;;;5057822;28;20490;-78
2023/01/28 08:05:00;;;;;;;10.77;9.33;;;-0.10;99.90;;;;;;5044284;28;20466;-78
2023/01/28 08:07:28;;;;;;;13.17;11.13;;;-0.10;99.90;;;;;;5050369;28;20470;-77
2023/01/28 08:09:57;;;;;;;13.47;10.97;;;0.00;99.90;;;;;;5051246;28;20463;-77
2023/01/28 08:12:25;;;;;;;11.43;10.33;;;0.00;99.90;;;;;;5050083;28;20460;-77
2023/01/28 08:14:56;;;;;;;12.07;9.97;;;0.00;99.90;;;;;;5054013;28;20530;-77
2023/01/28 08:17:24;;;;;;;11.33;10.13;;;0.00;99.90;;;;;;5051367;28;20470;-77
2023/01/28 08:19:54;;;;;;;12.67;10.83;;;0.00;99.90;;;;;;5046348;28;20840;-77
2023/01/28 08:22:25;;;;;;;13.37;10.90;;;0.00;99.90;;;;;;5050135;28;20490;-77
2023/01/28 08:24:53;;;;;;;14.37;10.93;;;0.00;99.90;;;;;;5052770;28;20462;-79
2023/01/28 08:27:22;;;;;;;12.23;10.47;;;0.00;99.90;;;;;;5053635;28;20937;-78
2023/01/28 08:29:51;;;;;;;12.47;10.00;;;0.00;99.90;;;;;;5042505;22;20507;-71
2023/01/28 08:32:19;;;;;;;14.70;12.07;;;0.10;99.90;;;;;;5015808;28;20471;-71
2023/01/28 08:34:47;;;;;;;13.70;11.47;;;0.10;99.90;;;;;;5022252;28;20468;-68
2023/01/28 08:37:15;;;;;;;13.40;10.80;;;0.10;99.90;;;;;;5017991;28;20478;-68
2023/01/28 08:39:43;;;;;;;12.27;10.50;;;0.20;99.90;;;;;;5019987;28;21886;-70
2023/01/28 08:42:15;;;;;;;11.23;10.13;;;0.20;99.90;;;;;;5008016;28;20629;-71
2023/01/28 08:44:47;;;;;;;13.23;10.30;;;0.20;99.90;;;;;;4996082;28;21621;-67
2023/01/28 08:47:18;;;;;;;12.27;10.70;;;0.20;99.90;;;;;;5009167;28;20506;-68
2023/01/28 08:49:46;;;;;;;12.30;11.10;;;0.30;99.90;;;;;;5011774;28;20805;-68
2023/01/28 08:52:14;;;;;;;11.20;10.10;;;0.30;99.90;;;;;;5019442;28;20847;-69
2023/01/28 08:54:44;;;;;;;11.67;10.47;;;0.30;99.90;;;;;;5026191;28;20529;-69
2023/01/28 08:57:12;;;;;;;10.77;9.73;;;0.40;99.90;;;;;;5018563;28;20480;-70
2023/01/28 08:59:44;;;;;;;12.47;10.67;;;0.40;99.90;;;;;;4991513;28;20497;-70
2023/01/28 09:02:14;;;;;;;11.43;10.27;;;0.40;99.90;;;;;;5013224;28;20502;-69
2023/01/28 09:04:57;;;;;;;11.43;10.23;;;0.50;99.90;;;;;;5020574;28;20502;-69
2023/01/28 09:07:27;;;;;;;13.93;10.97;;;0.50;99.90;;;;;;5015763;28;20499;-70
2023/01/28 09:09:55;;;;;;;11.50;10.40;;;0.50;99.90;;;;;;5026579;28;20483;-69
2023/01/28 09:12:24;;;;;;;13.17;11.80;;;0.60;99.90;;;;;;5028874;28;20463;-69
2023/01/28 09:14:52;;;;;;;11.70;10.50;;;0.60;99.90;;;;;;5028609;28;20978;-69
2023/01/28 09:17:22;;;;;;;12.23;10.93;;;0.60;99.90;;;;;;5035265;28;20478;-69
2023/01/28 09:19:50;;;;;;;12.90;11.60;;;0.70;99.90;;;;;;5037890;28;20522;-69
2023/01/28 09:22:19;;;;;;;13.10;11.23;;;0.70;99.90;;;;;;5047762;28;20555;-69
2023/01/28 09:24:47;;;;;;;12.17;10.97;;;0.80;99.90;;;;;;5036675;28;23203;-70
2023/01/28 09:27:15;;;;;;;12.73;11.00;;;0.90;99.90;;;;;;5040204;28;20499;-69
2023/01/28 09:29:45;;;;;;;11.43;10.33;;;1.00;99.90;;;;;;5025436;28;21071;-70
2023/01/28 09:32:15;;;;;;;11.37;10.27;;;1.10;99.90;;;;;;5028563;28;20459;-69
2023/01/28 09:34:45;;;;;;;11.23;10.13;;;1.10;99.90;;;;;;5039617;28;20517;-69
2023/01/28 09:37:13;;;;;;;10.90;9.90;;;1.20;99.90;;;;;;5023004;28;20475;-70
2023/01/28 09:39:41;;;;;;;10.97;9.97;;;1.20;99.90;;;;;;5027945;28;20541;-70
2023/01/28 09:42:27;;;;;;;10.33;9.30;;;1.20;99.90;;;;;;5033938;28;20533;-70
2023/01/28 09:45:07;;;;;;;11.17;10.07;;;1.20;99.90;;;;;;5027939;28;20466;-70
2023/01/28 09:47:38;;;;;;;10.10;9.20;;;1.20;99.90;;;;;;5031700;28;20913;-69
2023/01/28 09:50:14;;;;;;;9.93;9.03;;;1.20;99.90;;;;;;5024350;28;20522;-70
2023/01/28 09:52:43;;;;;;;10.27;9.20;;;1.20;99.90;;;;;;5027021;28;20989;-70
2023/01/28 09:55:19;;;;;;;10.57;9.47;;;1.30;99.90;;;;;;5028325;28;20514;-70
2023/01/28 09:57:51;;;;;;;11.23;9.17;;;1.30;99.90;;;;;;5025752;28;20916;-70
2023/01/28 10:00:22;;;;;;;11.10;8.07;;;1.40;99.90;;;;;;5023915;28;20498;-70
2023/01/28 10:03:13;;;;;;;8.93;8.13;;;1.50;99.90;;;;;;5030546;28;20494;-69
2023/01/28 10:05:52;;;;;;;9.77;8.93;;;1.60;99.90;;;;;;5029557;28;20475;-69
2023/01/28 10:08:37;;;;;;;9.37;8.53;;;1.70;99.90;;;;;;5029527;28;20467;-70
2023/01/28 10:11:15;;;;;;;9.37;8.47;;;1.80;99.90;;;;;;5026073;28;20495;-70
2023/01/28 10:13:48;;;;;;;9.90;8.90;;;1.80;99.90;;;;;;5024593;28;21625;-72
2023/01/28 10:16:23;;;;;;;9.43;8.53;;;1.90;99.90;;;;;;5027176;28;20470;-70
2023/01/28 10:18:55;;;;;;;9.40;8.50;;;1.90;99.90;;;;;;5026220;28;20522;-70
2023/01/28 10:21:29;;;;;;;10.17;9.27;;;2.00;99.90;;;;;;5033613;28;20471;-70
2023/01/28 10:24:01;;;;;;;9.50;8.57;;;2.20;99.90;;;;;;5026504;28;20481;-69
2023/01/28 10:26:34;;;;;;;10.57;8.60;;;2.40;99.90;;;;;;5036876;28;20568;-69
2023/01/28 10:29:11;;;;;;;8.40;7.60;;;2.50;99.90;;;;;;5015639;28;21010;-69
2023/01/28 10:31:44;;;;;;;8.40;7.50;;;2.50;99.90;;;;;;5011704;28;20474;-70
2023/01/28 10:34:12;;;;;;;10.50;8.30;;;2.60;99.90;;;;;;5016158;28;20975;-70
2023/01/28 10:36:42;;;;;;;8.90;8.00;;;2.60;99.90;;;;;;5028997;28;20973;-69
2023/01/28 10:39:11;;;;;;;8.50;7.57;;;2.60;99.90;;;;;;5038387;28;20486;-69
2023/01/28 10:41:39;;;;;;;11.80;8.90;;;2.70;99.90;;;;;;5025711;28;20481;-70
2023/01/28 10:44:32;;;;;;;9.17;8.17;;;2.70;99.90;;;;;;5012534;28;20888;-69
2023/01/28 10:47:03;;;;;;;8.30;7.50;;;2.70;99.90;;;;;;5023478;28;20509;-69
2023/01/28 10:49:38;;;;;;;10.37;8.40;;;2.70;99.90;;;;;;5026505;28;20495;-70
2023/01/28 10:52:13;;;;;;;10.00;9.00;;;2.80;99.90;;;;;;5034070;28;20460;-70
2023/01/28 10:54:43;;;;;;;10.03;9.10;;;2.80;99.90;;;;;;5031097;28;20470;-70
2023/01/28 10:57:13;;;;;;;9.87;8.97;;;2.90;99.90;;;;;;5033279;28;20502;-69
2023/01/28 10:59:41;;;;;;;9.60;8.70;;;2.80;99.90;;;;;;5034751;28;20487;-69
2023/01/28 11:02:26;;;;;;;10.80;9.80;;;2.80;99.90;;;;;;5021613;28;20467;-70
2023/01/28 11:05:07;;;;;;;9.93;8.80;;;2.90;99.90;;;;;;5045055;28;20478;-69
2023/01/28 11:07:36;;;;;;;9.60;8.60;;;3.00;99.90;;;;;;5053649;28;21056;-71
2023/01/28 11:10:26;;;;;;;10.47;9.40;;;3.10;99.90;;;;;;5071414;28;20488;-70
2023/01/28 11:12:59;;;;;;;10.40;9.30;;;3.20;99.90;;;;;;5067289;28;21081;-70
2023/01/28 11:15:28;;;;;;;10.80;9.70;;;3.20;99.90;;;;;;5067738;28;20481;-70
2023/01/28 11:17:58;;;;;;;10.23;9.17;;;3.20;99.90;;;;;;5056693;28;20455;-71
2023/01/28 11:20:29;;;;;;;10.53;9.63;;;3.20;99.90;;;;;;5050099;28;20582;-71
2023/01/28 11:22:58;;;;;;;10.80;9.70;;;3.20;99.90;;;;;;5047347;28;20467;-71
2023/01/28 11:25:30;;;;;;;11.40;10.30;;;3.20;99.90;;;;;;5047371;28;20467;-71
2023/01/28 11:27:59;;;;;;;11.33;10.30;;;3.40;99.90;;;;;;5033068;28;20467;-70
2023/01/28 11:30:31;;;;;;;10.80;9.70;;;3.40;99.90;;;;;;5014603;28;20510;-71
2023/01/28 11:33:16;;;;;;;11.50;10.30;;;3.60;99.90;;;;;;5035475;28;20502;-71
2023/01/28 11:35:54;;;;;;;11.10;10.00;;;3.60;99.90;;;;;;5028364;28;20470;-71
2023/01/28 11:38:25;;;;;;;10.83;9.60;;;3.70;99.90;;;;;;5029448;28;20462;-73
2023/01/28 11:40:55;;;;;;;11.20;10.10;;;3.80;99.90;;;;;;5025485;28;21001;-72
2023/01/28 11:43:25;;;;;;;12.70;10.10;;;3.70;99.90;;;;;;5026902;28;20490;-71
2023/01/28 11:46:01;;;;;;;10.93;9.87;;;3.70;99.90;;;;;;5027128;28;20482;-71
2023/01/28 11:48:41;;;;;;;12.00;10.10;;;3.80;99.90;;;;;;5028571;28;20981;-71
2023/01/28 11:51:28;;;;;;;11.13;9.90;;;3.80;99.90;;;;;;5022265;28;20473;-71
2023/01/28 11:54:12;;;;;;;11.50;9.63;;;3.90;99.90;;;;;;5024603;28;20558;-71
2023/01/28 11:57:04;;;;;;;11.30;10.20;;;4.10;99.90;;;;;;5030049;28;20475;-71
2023/01/28 11:59:56;;;;;;;11.00;9.90;;;4.30;99.90;;;;;;5027855;28;20495;-71
2023/01/28 12:02:48;;;;;;;10.90;9.80;;;4.30;99.90;;;;;;5037244;28;21206;-70
2023/01/28 12:05:40;;;;;;;10.90;9.80;;;4.20;99.90;;;;;;5021734;28;21084;-71
2023/01/28 12:08:16;;;;;;;11.17;10.07;;;4.30;99.90;;;;;;5030742;28;20469;-72
2023/01/28 12:10:53;;;;;;;12.20;10.47;;;4.30;99.90;;;;;;5036873;28;20493;-71
2023/01/28 12:13:37;;;;;;;12.07;10.97;;;4.20;99.90;;;;;;5044389;28;20466;-70
2023/01/28 12:16:30;;;;;;;11.60;10.50;;;4.20;99.90;;;;;;5053025;28;20836;-70
2023/01/28 12:19:21;;;;;;;12.17;10.93;;;4.20;99.90;;;;;;5052335;28;20477;-70
2023/01/28 12:22:17;;;;;;;11.53;9.87;;;4.20;99.90;;;;;;5049600;28;20482;-70
2023/01/28 12:24:59;;;;;;;11.63;10.53;;;4.50;99.90;;;;;;5040339;28;20516;-71
2023/01/28 12:27:39;;;;;;;10.73;9.63;;;4.90;99.90;;;;;;5054769;28;20477;-70
2023/01/28 12:30:20;;;;;;;11.90;10.70;;;5.30;99.90;;;;;;5050238;28;20497;-70
2023/01/28 12:32:59;;;;;;;11.67;10.27;;;5.50;99.90;;;;;;5044885;28;20478;-70
2023/01/28 12:35:43;;;;;;;10.93;9.83;;;5.70;99.90;;;;;;5044856;28;20466;-71
2023/01/28 12:38:18;;;;;;;12.90;10.63;;;5.90;99.90;;;;;;5049109;28;20477;-71
2023/01/28 12:40:57;;;;;;;12.23;10.97;;;6.00;99.90;;;;;;5046120;28;20485;-70
2023/01/28 12:43:43;;;;;;;12.20;11.07;;;6.40;99.90;;;;;;5038286;28;20503;-71
2023/01/28 12:46:17;;;;;;;11.23;10.13;;;7.20;99.90;;;;;;5039726;28;20462;-71
2023/01/28 12:48:51;;;;;;;11.67;10.60;;;7.50;99.90;;;;;;5044443;28;20484;-71
2023/01/28 12:51:24;;;;;;;11.33;10.23;;;7.50;99.90;;;;;;5034154;28;20529;-71
2023/01/28 12:53:57;;;;;;;11.40;10.37;;;7.20;99.90;;;;;;5044959;28;20842;-71
2023/01/28 12:56:29;;;;;;;11.57;10.47;;;6.70;99.90;;;;;;5048366;28;20470;-71
2023/01/28 12:59:03;;;;;;;11.23;10.23;;;6.30;99.90;;;;;;5048019;28;20462;-71
2023/01/28 13:01:38;;;;;;;12.23;11.03;;;6.00;99.90;;;;;;5052122;28;20473;-71
2023/01/28 13:04:10;;;;;;;12.20;11.20;;;5.70;99.90;;;;;;5050204;28;20496;-71
2023/01/28 13:06:44;;;;;;;12.90;11.60;;;5.80;99.90;;;;;;5055144;28;20467;-70
2023/01/28 13:09:17;;;;;;;12.30;11.10;;;5.90;99.90;;;;;;5051967;28;20498;-71
2023/01/28 13:11:48;;;;;;;12.57;11.27;;;5.90;99.90;;;;;;5055631;28;20480;-71
2023/01/28 13:14:17;;;;;;;13.53;10.90;;;5.80;99.90;;;;;;5055601;28;20465;-71
2023/01/28 13:16:47;;;;;;;12.03;10.83;;;5.70;99.90;;;;;;5054528;28;20526;-71
2023/01/28 13:19:23;;;;;;;12.80;11.60;;;5.60;99.90;;;;;;5071329;28;20478;-70
2023/01/28 13:21:52;;;;;;;12.70;11.50;;;5.40;99.90;;;;;;5062468;28;20466;-71
2023/01/28 13:24:30;;;;;;;13.17;11.87;;;5.20;99.90;;;;;;5065630;28;20482;-71
2023/01/28 13:26:58;;;;;;;12.40;11.20;;;5.10;99.90;;;;;;5070867;28;20490;-70
2023/01/28 13:29:33;;;;;;;13.60;12.20;;;5.10;99.90;;;;;;5064730;28;20486;-70
2023/01/28 13:32:03;;;;;;;13.67;12.27;;;5.10;99.90;;;;;;5050867;28;20469;-70
2023/01/28 13:34:36;;;;;;;12.93;11.50;;;5.10;99.90;;;;;;5056114;28;20471;-71
2023/01/28 13:37:17;;;;;;;13.77;12.37;;;5.10;99.90;;;;;;5056251;28;21041;-70
2023/01/28 13:39:50;;;;;;;14.93;11.53;;;5.20;99.90;;;;;;5050783;28;20497;-71
2023/01/28 13:42:25;;;;;;;13.33;12.03;;;5.50;99.90;;;;;;5052028;28;20481;-70
2023/01/28 13:44:56;;;;;;;12.37;11.10;;;5.70;99.90;;;;;;5053227;28;20486;-70
2023/01/28 13:47:29;;;;;;;13.60;12.20;;;5.70;99.90;;;;;;5051589;28;20474;-70
2023/01/28 13:50:01;;;;;;;13.27;11.90;;;5.50;99.90;;;;;;5052889;28;20497;-71
2023/01/28 13:52:32;;;;;;;12.53;11.13;;;5.30;99.90;;;;;;5048693;28;20462;-70
2023/01/28 13:55:04;;;;;;;13.40;11.80;;;5.10;99.90;;;;;;5048284;28;20787;-71
2023/01/28 13:58:20;;;;;;;14.33;12.93;;;5.00;99.90;;;;;;5050121;28;20934;-70
2023/01/28 14:01:12;;;;;;;15.03;12.50;;;4.70;99.90;;;;;;5050344;28;20521;-70
2023/01/28 14:04:13;;;;;;;14.47;12.83;;;4.60;99.90;;;;;;5050494;28;20466;-70
2023/01/28 14:07:17;;;;;;;14.17;12.77;;;4.50;99.90;;;;;;5042065;28;20493;-70
2023/01/28 14:10:19;;;;;;;14.97;12.27;;;4.40;99.90;;;;;;5025570;28;20934;-70
2023/01/28 14:13:18;;;;;;;16.13;12.70;;;4.30;99.90;;;;;;5048279;28;20470;-70
2023/01/28 14:16:38;;;;;;;15.13;13.20;;;4.20;99.90;;;;;;5048076;28;20470;-70
2023/01/28 14:19:13;;;;;;;13.93;12.40;;;4.10;99.90;;;;;;5009975;28;20957;-70
2023/01/28 14:21:41;;;;;;;13.00;11.50;;;4.10;99.90;;;;;;5007925;28;20522;-70
2023/01/28 14:24:17;;;;;;;15.97;12.10;;;4.00;99.90;;;;;;5026007;28;20478;-70
2023/01/28 14:27:00;;;;;;;16.33;12.90;;;4.00;99.90;;;;;;5040949;28;20477;-70
2023/01/28 14:29:44;;;;;;;17.70;13.57;;;4.00;99.90;;;;;;5047474;28;20494;-70
2023/01/28 14:32:16;;;;;;;16.20;12.60;;;3.90;99.90;;;;;;5056991;22;20458;-77
2023/01/28 14:34:49;;;;;;;14.13;11.80;;;3.90;99.90;;;;;;5075615;28;21139;-77
2023/01/28 14:37:22;;;;;;;22.90;13.17;;;3.80;99.90;;;;;;5077643;28;20477;-76
2023/01/28 14:39:54;;;;;;;12.93;10.93;;;3.80;99.90;;;;;;5073284;28;20558;-78
2023/01/28 14:42:30;;;;;;;14.37;11.20;;;3.80;99.90;;;;;;5065762;28;20624;-77
2023/01/28 14:45:09;;;;;;;13.83;11.93;;;3.70;99.90;;;;;;5053289;28;20952;-77
2023/01/28 14:48:06;;;;;;;13.10;11.70;;;3.80;99.90;;;;;;5054753;28;20473;-77
2023/01/28 14:50:55;;;;;;;14.70;12.20;;;3.80;99.90;;;;;;5067652;28;20502;-78
2023/01/28 14:53:51;;;;;;;13.83;11.53;;;3.80;99.90;;;;;;5075197;28;20572;-78
2023/01/28 14:56:30;;;;;;;16.57;11.50;;;3.80;99.90;;;;;;5080490;28;20470;-77
2023/01/28 14:59:04;;;;;;;15.00;12.00;;;3.80;99.90;;;;;;5077102;28;20572;-78
2023/01/28 15:01:32;;;;;;;14.67;11.03;;;3.90;99.90;;;;;;5087520;28;20473;-79
2023/01/28 15:04:00;;;;;;;12.90;11.50;;;3.90;99.90;;;;;;5079704;28;20580;-80
2023/01/28 15:06:35;;;;;;;12.30;10.70;;;3.80;99.90;;;;;;5078760;28;21003;-79
2023/01/28 15:09:07;;;;;;;13.30;11.30;;;3.80;99.90;;;;;;5074293;28;20768;-79
2023/01/28 15:11:43;;;;;;;15.10;12.30;;;3.80;99.90;;;;;;5082641;28;20494;-78
2023/01/28 15:14:20;;;;;;;14.03;11.30;;;3.80;99.90;;;;;;5070485;28;20460;-77
2023/01/28 15:16:51;;;;;;;15.60;11.17;;;3.70;99.90;;;;;;5073648;28;20466;-79
2023/01/28 15:19:26;;;;;;;14.60;12.27;;;3.70;99.90;;;;;;5077302;28;20471;-78
2023/01/28 15:22:04;;;;;;;14.60;11.30;;;3.70;99.90;;;;;;5084621;28;20466;-80
2023/01/28 15:24:34;;;;;;;12.43;10.53;;;3.70;99.90;;;;;;5086404;28;20468;-79
2023/01/28 15:27:03;;;;;;;11.37;10.17;;;3.70;99.90;;;;;;5085331;28;20509;-78
2023/01/28 15:29:38;;;;;;;13.27;11.30;;;3.60;99.90;;;;;;5072325;28;21030;-82
2023/01/28 15:32:23;;;;;;;14.33;11.20;;;3.60;99.90;;;;;;5086203;28;20477;-83
2023/01/28 15:34:51;;;;;;;13.40;10.40;;;3.60;99.90;;;;;;5091441;28;20467;-81
2023/01/28 15:37:21;;;;;;;12.97;10.87;;;3.50;99.90;;;;;;5088147;28;20503;-77
2023/01/28 15:40:01;;;;;;;12.83;11.43;;;3.50;99.90;;;;;;5088172;28;20471;-76
2023/01/28 15:42:32;;;;;;;13.20;10.90;;;3.50;99.90;;;;;;5097795;28;20477;-79
2023/01/28 15:45:04;;;;;;;13.80;11.07;;;3.50;99.90;;;;;;5076146;28;20475;-78
2023/01/28 15:47:34;;;;;;;13.47;10.70;;;3.50;99.90;;;;;;5078876;28;20490;-77
2023/01/28 15:50:06;;;;;;;16.70;11.97;;;3.40;99.90;;;;;;5086953;28;20465;-78
2023/01/28 15:52:38;;;;;;;15.50;10.63;;;3.50;99.90;;;;;;5093760;28;20484;-79
2023/01/28 15:55:07;;;;;;;14.60;11.83;;;3.50;99.90;;;;;;5086497;28;20471;-79
2023/01/28 15:57:37;;;;;;;12.27;10.97;;;3.40;99.90;;;;;;5088672;28;20556;-79
2023/01/28 16:00:13;;;;;;;14.90;10.90;;;3.40;99.90;;;;;;5089152;28;20468;-80
2023/01/28 16:02:46;;;;;;;14.13;11.50;;;3.40;99.90;;;;;;5088299;28;20488;-79
2023/01/28 16:05:26;;;;;;;13.40;10.70;;;3.40;99.90;;;;;;5090354;28;20483;-78
2023/01/28 16:07:58;;;;;;;14.40;11.80;;;3.40;99.90;;;;;;5068941;28;20460;-79
2023/01/28 16:10:28;;;;;;;13.90;10.47;;;3.40;99.90;;;;;;5098221;28;20444;-81
2023/01/28 16:13:04;;;;;;;15.00;11.57;;;3.30;99.90;;;;;;5094430;28;20499;-79
2023/01/28 16:15:33;;;;;;;13.40;10.40;;;3.30;99.90;;;;;;5078605;28;20640;-78
2023/01/28 16:18:04;;;;;;;12.43;10.77;;;3.30;99.90;;;;;;5093524;28;20478;-78